KHPT/HPT METAR and TAF weather

Enter ICAO airport designator
Station Type Date Time Source
KHPT METAR 2022/05/24 11:35 UTC NOAA

KHPT 241135Z AUTO 09008KT 10SM BKN120 10/03 A3018 RMK AO2


Station Type Date Time Source
KHPT Decoded METAR 2022/05/24 11:35 UTC NOAA

Station name not available
May 24, 2022 - 07:35 AM EDT / 2022.05.24 1135 UTC
Wind: from the E (090 degrees) at 9 MPH (8 KT):0
Visibility: 10 mile(s):0
Sky conditions: mostly cloudy
Temperature: 50 F (10 C)
Dew Point: 37 F (3 C)
Relative Humidity: 61%
Pressure (altimeter): 30.18 in. Hg (1022 hPa)
ob: KHPT 241135Z AUTO 09008KT 10SM BKN120 10/03 A3018 RMK AO2
cycle: 11

Station Type Date Time Source
KHPT TAF UTC NOAA

Error!

Example: see airport list